createdAt,value
2022-10-23T00:03:27.531Z,14.98
2022-10-23T00:08:50.144Z,15.68
2022-10-23T00:14:12.000Z,15.68
2022-10-23T00:19:33.816Z,15.98
2022-10-23T00:24:55.627Z,15.38
2022-10-23T00:30:17.576Z,17.25
2022-10-23T00:35:42.613Z,16.25
2022-10-23T00:41:05.289Z,16.73
2022-10-23T00:46:27.388Z,16.58
2022-10-23T00:51:56.019Z,16.83
2022-10-23T00:57:17.904Z,16.70
2022-10-23T01:02:39.945Z,17.38
2022-10-23T01:08:17.985Z,17.15
2022-10-23T01:13:50.729Z,18.05
2022-10-23T01:19:27.231Z,16.55
2022-10-23T01:24:56.660Z,17.50
2022-10-23T01:30:18.698Z,17.65
2022-10-23T01:35:46.874Z,17.98
2022-10-23T01:41:18.663Z,17.80
2022-10-23T01:46:43.054Z,18.30
2022-10-23T01:52:08.599Z,17.63
2022-10-23T01:57:32.640Z,19.25
2022-10-23T02:02:57.655Z,18.67
2022-10-23T02:08:19.532Z,19.38
2022-10-23T02:14:03.998Z,20.75
2022-10-23T02:19:45.856Z,18.77
2022-10-23T02:25:13.899Z,20.40
2022-10-23T02:30:40.543Z,20.50
2022-10-23T02:41:24.035Z,20.75
2022-10-23T02:47:07.369Z,20.77
2022-10-23T02:52:42.263Z,21.20
2022-10-23T02:58:12.899Z,20.52
2022-10-23T03:03:45.102Z,21.75
2022-10-23T03:09:09.588Z,21.77
2022-10-23T03:14:31.407Z,22.92
2022-10-23T03:19:53.358Z,22.45
2022-10-23T03:25:15.384Z,22.80
2022-10-23T03:30:37.224Z,22.30
2022-10-23T03:35:59.008Z,21.45
2022-10-23T03:41:20.866Z,23.30
2022-10-23T03:46:42.658Z,22.15
2022-10-23T03:52:05.207Z,23.88
2022-10-23T03:57:27.006Z,23.08
2022-10-23T04:02:49.019Z,23.33
2022-10-23T04:08:10.879Z,23.40
2022-10-23T04:13:32.764Z,23.80
2022-10-23T04:18:54.598Z,24.48
2022-10-23T04:24:16.422Z,24.10
2022-10-23T04:29:38.209Z,22.10
2022-10-23T04:35:00.031Z,22.90
2022-10-23T04:40:21.883Z,23.58
2022-10-23T04:45:43.690Z,22.98
2022-10-23T04:51:06.241Z,21.77
2022-10-23T04:56:28.088Z,21.10
2022-10-23T05:01:49.955Z,21.77
2022-10-23T05:07:11.925Z,22.75
2022-10-23T05:12:33.834Z,21.73
2022-10-23T05:18:00.010Z,24.95
2022-10-23T05:23:24.384Z,23.77
2022-10-23T05:28:46.205Z,23.63
2022-10-23T05:34:11.154Z,22.00
2022-10-23T05:39:35.586Z,23.08
2022-10-23T05:44:57.443Z,22.40
2022-10-23T05:50:19.676Z,21.55
2022-10-23T05:55:41.473Z,22.85
2022-10-23T06:01:09.224Z,23.40
2022-10-23T06:06:31.236Z,22.70
2022-10-23T06:11:53.111Z,23.63
2022-10-23T06:17:15.872Z,23.13
2022-10-23T06:22:37.828Z,24.58
2022-10-23T06:27:59.762Z,23.67
2022-10-23T06:33:21.647Z,23.58
2022-10-23T06:38:43.540Z,23.90
2022-10-23T06:44:05.453Z,24.50
2022-10-23T06:49:27.381Z,21.58
2022-10-23T06:54:49.216Z,19.70
2022-10-23T07:00:11.836Z,19.73
2022-10-23T07:05:33.716Z,18.13
2022-10-23T07:10:55.664Z,17.23
2022-10-23T07:16:23.033Z,18.60
2022-10-23T07:21:44.863Z,17.77
2022-10-23T07:27:06.941Z,17.33
2022-10-23T07:32:28.739Z,17.35
2022-10-23T07:37:50.602Z,17.40
2022-10-23T07:43:12.441Z,16.80
2022-10-23T07:48:34.527Z,17.85
2022-10-23T07:53:56.411Z,16.80
2022-10-23T07:59:18.265Z,16.50
2022-10-23T08:04:40.497Z,16.45
2022-10-23T08:10:02.442Z,16.27
2022-10-23T08:15:24.241Z,16.27
2022-10-23T08:20:48.305Z,15.68
2022-10-23T08:26:10.969Z,18.38
2022-10-23T08:31:32.831Z,17.17
2022-10-23T08:36:54.697Z,17.23
2022-10-23T08:42:23.545Z,16.90
2022-10-23T08:47:50.575Z,15.98
2022-10-23T08:53:44.594Z,17.13
2022-10-23T08:59:24.604Z,18.08
2022-10-23T09:04:48.636Z,17.27
2022-10-23T09:11:21.509Z,17.80
2022-10-23T09:17:06.340Z,16.98
2022-10-23T09:22:29.050Z,17.98
2022-10-23T09:27:56.122Z,18.85
2022-10-23T09:33:19.217Z,17.38
2022-10-23T09:38:47.208Z,15.93
2022-10-23T09:44:09.090Z,15.32
2022-10-23T09:49:32.867Z,15.10
2022-10-23T09:54:58.400Z,15.15
2022-10-23T10:00:22.273Z,14.60
2022-10-23T10:05:44.161Z,14.23
2022-10-23T10:11:27.188Z,14.68
2022-10-23T10:17:06.708Z,13.77
2022-10-23T10:22:52.189Z,15.25
2022-10-23T10:28:29.011Z,14.03
2022-10-23T10:34:03.581Z,13.43
2022-10-23T10:39:59.646Z,13.57
2022-10-23T10:45:30.655Z,13.88
2022-10-23T10:50:57.758Z,14.65
2022-10-23T10:56:23.802Z,15.20
2022-10-23T11:01:53.432Z,13.85
2022-10-23T11:07:21.615Z,12.52
2022-10-23T11:12:46.132Z,11.48
2022-10-23T11:18:14.952Z,11.50
2022-10-23T11:29:59.584Z,9.38
2022-10-23T11:35:40.237Z,10.00
2022-10-23T11:41:16.294Z,9.82
2022-10-23T11:46:39.031Z,9.40
2022-10-23T11:52:05.583Z,9.95
2022-10-23T12:02:59.102Z,11.18
2022-10-23T12:08:25.359Z,10.52
2022-10-23T12:13:47.178Z,10.53
2022-10-23T12:19:20.696Z,10.15
2022-10-23T12:24:55.521Z,8.77
2022-10-23T12:30:21.749Z,9.35
2022-10-23T12:36:11.569Z,7.95
2022-10-23T12:41:34.811Z,8.70
2022-10-23T12:46:59.287Z,9.18
2022-10-23T12:52:21.887Z,8.68
2022-10-23T12:57:44.565Z,9.38
2022-10-23T13:03:06.632Z,10.48
2022-10-23T13:08:42.200Z,12.05
2022-10-23T13:14:12.201Z,11.40
2022-10-23T13:19:34.309Z,10.82
2022-10-23T13:24:56.118Z,10.23
2022-10-23T13:30:32.966Z,13.95
2022-10-23T13:36:14.992Z,11.60
2022-10-23T13:41:46.938Z,13.18
2022-10-23T13:47:13.235Z,13.15
2022-10-23T13:52:35.055Z,13.82
2022-10-23T13:57:56.895Z,15.10
2022-10-23T14:03:18.853Z,14.13
2022-10-23T14:08:40.722Z,13.73
2022-10-23T14:14:02.979Z,13.57
2022-10-23T14:19:24.891Z,14.88
2022-10-23T14:24:46.763Z,13.93
2022-10-23T14:30:09.150Z,14.13
2022-10-23T14:35:31.049Z,12.85
2022-10-23T14:40:53.140Z,39.38
2022-10-23T14:46:17.375Z,14.20
2022-10-23T14:51:39.257Z,13.05
2022-10-23T14:57:01.411Z,12.88
2022-10-23T15:02:23.502Z,11.02
2022-10-23T15:07:45.380Z,10.32
2022-10-23T15:13:07.262Z,11.13
2022-10-23T15:18:29.148Z,11.50
2022-10-23T15:23:51.272Z,11.95
2022-10-23T15:29:14.144Z,11.48
2022-10-23T15:34:36.104Z,12.82
2022-10-23T15:40:01.155Z,11.18
2022-10-23T15:45:26.614Z,12.60
2022-10-23T15:50:50.963Z,11.02
2022-10-23T15:56:12.867Z,9.52
2022-10-23T16:01:34.835Z,9.85
2022-10-23T16:06:56.938Z,10.45
2022-10-23T16:12:18.900Z,12.20
2022-10-23T16:17:40.974Z,11.07
2022-10-23T16:23:03.382Z,11.90
2022-10-23T16:28:25.237Z,12.38
2022-10-23T16:33:48.157Z,12.27
2022-10-23T16:39:11.558Z,13.10
2022-10-23T16:44:33.510Z,12.70
2022-10-23T16:49:55.440Z,12.85
2022-10-23T16:55:17.488Z,14.68
2022-10-23T17:00:39.455Z,12.38
2022-10-23T17:06:03.433Z,12.57
2022-10-23T17:16:59.229Z,12.73
2022-10-23T17:22:21.045Z,13.77
2022-10-23T17:27:43.171Z,13.25
2022-10-23T17:33:05.309Z,13.88
2022-10-23T17:38:27.160Z,13.32
2022-10-23T17:43:50.124Z,14.00
2022-10-23T17:49:12.530Z,13.85
2022-10-23T17:54:34.370Z,14.52
2022-10-23T17:59:56.194Z,13.73
2022-10-23T18:05:18.183Z,13.48
2022-10-23T18:10:40.309Z,13.15
2022-10-23T18:16:04.283Z,13.57
2022-10-23T18:21:26.452Z,13.57
2022-10-23T18:26:48.610Z,12.82
2022-10-23T18:32:10.602Z,14.10
2022-10-23T18:37:34.701Z,16.35
2022-10-23T18:43:00.433Z,15.73
2022-10-23T18:48:22.254Z,14.93
2022-10-23T18:53:44.527Z,15.30
2022-10-23T18:59:10.519Z,16.88
2022-10-23T19:04:35.558Z,21.20
2022-10-23T19:09:58.457Z,17.37
2022-10-23T19:15:20.310Z,18.70
2022-10-23T19:20:43.178Z,30.17
2022-10-23T19:26:07.007Z,20.35
2022-10-23T19:31:29.014Z,32.90
2022-10-23T19:36:52.957Z,27.63
2022-10-23T19:42:14.970Z,23.33
2022-10-23T19:47:37.372Z,22.23
2022-10-23T19:52:59.196Z,26.05
2022-10-23T19:58:21.042Z,23.27
2022-10-23T20:03:43.542Z,22.90
2022-10-23T20:09:08.107Z,30.13
2022-10-23T20:14:30.262Z,28.00
2022-10-23T20:19:52.097Z,26.83
2022-10-23T20:25:13.936Z,25.00
2022-10-23T20:30:42.837Z,26.48
2022-10-23T20:36:07.575Z,26.05
2022-10-23T20:41:30.153Z,26.98
2022-10-23T20:46:52.456Z,29.35
2022-10-23T20:52:14.283Z,31.08
2022-10-23T20:57:36.097Z,29.05
2022-10-23T21:02:58.132Z,28.38
2022-10-23T21:08:19.998Z,32.67
2022-10-23T21:13:44.063Z,32.20
2022-10-23T21:19:06.745Z,36.00
2022-10-23T21:24:28.615Z,42.05
2022-10-23T21:29:50.537Z,38.25
2022-10-23T21:35:12.379Z,36.30
2022-10-23T21:40:34.179Z,45.03
2022-10-23T21:45:58.811Z,41.72
2022-10-23T21:51:26.791Z,35.90
2022-10-23T21:56:51.240Z,47.13
2022-10-23T22:02:13.249Z,43.25
2022-10-23T22:07:35.252Z,33.75
2022-10-23T22:12:57.059Z,36.55
2022-10-23T22:18:18.868Z,38.03
2022-10-23T22:23:41.546Z,35.25
2022-10-23T22:29:12.244Z,34.72
2022-10-23T22:34:52.005Z,33.30
2022-10-23T22:40:14.404Z,31.65
2022-10-23T22:45:36.203Z,34.45
2022-10-23T22:50:58.272Z,45.95
2022-10-23T22:56:22.779Z,37.33
2022-10-23T23:01:47.213Z,35.05
2022-10-23T23:07:12.039Z,36.92
2022-10-23T23:12:34.176Z,34.72
2022-10-23T23:17:56.126Z,32.75
2022-10-23T23:23:18.041Z,39.08
2022-10-23T23:28:40.424Z,32.05
2022-10-23T23:34:02.490Z,35.33
2022-10-23T23:39:24.303Z,33.03
2022-10-23T23:44:55.931Z,35.13
2022-10-23T23:50:25.615Z,30.98
2022-10-23T23:55:47.507Z,31.05
